Terminal Aerodrome Forecast
Issued by NWS

Home | Current Version | Previous Version | Graphics & Text | Print | Product List | Glossary On
Versions: 1 2 3 4 5 6 7 8 9 10 11 12 13 14 15 16 17 18 19 20
000
FTUS43 KFGF 261100
TAFBJI
TAF
KBJI 261120Z 2612/2712 35009KT P6SM OVC080
      TEMPO 2612/2615 5SM -SN BKN025
     FM261500 34010KT P6SM SCT025
     FM261800 33008KT P6SM SCT025=

USA.gov is the U.S. government's official web portal to all federal, state and local government web resources and services.